Progenics Pharmaceuticals (PGNX) Latest Bloomsberg Price


Mffais Ranking #1721 Overall / #47 Industry
Industry: Specialty Pharma

Number of Companies: 88 (Ranking #1807 Overall/#27 Industry)
Inflow: $ 18,696 (K) (Ranking #1777 Overall/#27 Industry)
Outflow: $ -24,239 (K)
Mffais Flow: $ -5,543 (K) (Ranking #1721 Overall/#47 Industry)


Receive a FREE weekly executive review of stocks moving into the top 10, taking the top industy spot or moving up within their industry. Sent directly to your Inbox every Saturday. Sign up today and get last week's review immediately sent to you.

We value and respect your privacy. Please read our Terms and Conditions which states our firm commitment to your privacy. Your email address will not be shared with a third party, nor will it be sold or used for purposes other than subscription for the weekly review.

Owner CPOR Shares Action Qty Chg Invested (K) Total Current Value (K)
Phocas Financial Corp 2016-09-30 1,593,088 Added More 943,793 $ 5,587 $ 9,431
Park West Asset Management Llc 2016-09-30 543,760 New Holding 543,760 $ 3,219 $ 3,219
Healthinvest Partners Ab 2016-09-30 280,000 New Holding 280,000 $ 1,657 $ 1,657
Nexthera Capital Lp 2016-09-30 350,000 Added More 254,000 $ 1,503 $ 2,072
Rice Hall James Associates Llc 2016-09-30 1,129,119 Added More 164,322 $ 972 $ 6,684
Eam Investors Llc 2016-09-30 144,902 New Holding 144,902 $ 857 $ 857
Searle Co 2016-09-30 105,000 New Holding 105,000 $ 621 $ 621
Creative Planning 2016-09-30 73,000 Added More 70,000 $ 414 $ 432
Ellington Management Group Llc 2016-09-30 67,200 New Holding 67,200 $ 397 $ 397
Highbridge Capital Management Llc 2016-09-30 63,548 New Holding 63,548 $ 376 $ 376
Ardsley Advisory Partners 2016-09-30 460,000 Added More 60,000 $ 355 $ 2,723
New York State Common Retirement Fund 2016-09-30 209,030 Added More 57,490 $ 340 $ 1,237
Emerald Acquisition Ltd 2016-09-30 122,862 Added More 56,934 $ 337 $ 727
Turner Investments L P 2016-09-30 177,206 Added More 50,080 $ 296 $ 1,049
Gotham Asset Management Llc 2016-09-30 48,873 New Holding 48,873 $ 289 $ 289
A R T Advisors Llc 2016-09-30 35,700 New Holding 35,700 $ 211 $ 211
Blair William Co Il 2016-09-30 24,000 New Holding 24,000 $ 142 $ 142
Acuta Capital Partners Llc 2016-09-30 472,370 Added More 23,485 $ 139 $ 2,796
Westwood Management Corp Il 2016-09-30 20,000 New Holding 20,000 $ 118 $ 118
Group One Trading L P 2016-09-30 18,266 New Holding 18,266 $ 108 $ 108
Two Sigma Securities Llc 2016-09-30 17,172 New Holding 17,172 $ 101 $ 101
Virtus Etf Advisers Llc 2016-09-30 135,340 Added More 17,055 $ 100 $ 801
Schonfeld Strategic Advisors Llc 2016-09-30 15,374 New Holding 15,374 $ 91 $ 91
Blackrock Investment Management Llc 2016-09-30 273,226 Added More 12,359 $ 73 $ 1,617
Point72 Asia Hong Kong Ltd 2016-09-30 11,500 New Holding 11,500 $ 68 $ 68
Squarepoint Ops Llc 2016-09-30 11,099 New Holding 11,099 $ 65 $ 65
Strategic Investment Management Llc 2016-09-30 10,013 New Holding 10,013 $ 59 $ 59
Cutler Group Lp 2016-09-30 11,500 Added More 8,600 $ 50 $ 68
Acrospire Investment Management Llc 2016-09-30 7,800 New Holding 7,800 $ 46 $ 46
Simplex Trading Llc 2016-09-30 3,942 New Holding 3,942 $ 23 $ 23
California State Teachers Retirement System 2016-09-30 147,011 Added More 2,000 $ 11 $ 870
Cubist Systematic Strategies Llc 2016-09-30 1,937 New Holding 1,937 $ 11 $ 11
Stifel Financial Corp 2016-09-30 24,956 Added More 1,505 $ 8 $ 147
Reilly Financial Advisors Llc 2016-09-30 1,400 New Holding 1,400 $ 8 $ 8
Advisor Group Inc 2016-09-30 1,362 New Holding 1,362 $ 8 $ 8
Tower Research Capital Llc Trc 2016-09-30 1,225 New Holding 1,225 $ 7 $ 7
Ladenburg Thalmann Financial Services Inc 2016-09-30 3,749 Added More 930 $ 5 $ 22
Blackrock Inc 2016-09-30 6,603 Added More 728 $ 4 $ 39
Hall Laurie J Trustee 2016-06-30 920 New Holding 920 $ 3 $ 3
Globeflex Capital L P 2016-09-30 111 New Holding 111 $ 0 $ 0
American International Group Inc 2016-09-30 40,133 Added More 61 $ 0 $ 237
Teachers Advisors Inc 2016-09-30 109,166 No Change 0 $ 0 $ 646
Swiss National Bank 2016-09-30 115,700 No Change 0 $ 0 $ 684
Broadfin Capital Llc 2016-09-30 8,951,169 No Change 0 $ 0 $ 52,990
Cg Asset Management Llc 2016-09-30 32,500 No Change 0 $ 0 $ 192
Mark Sheptoff Financial Planning Llc 2016-09-30 10 No Change 0 $ 0 $ 0
Fifth Third Bancorp 2016-09-30 5,000 No Change 0 $ 0 $ 29
Ifp Advisors Inc 2016-09-30 410 No Change 0 $ 0 $ 2
Nationwide Fund Advisors 2016-09-30 44,204 No Change 0 $ 0 $ 261
Zurcher Kantonalbank Zurich Cantonalbank 2016-09-30 1,670 No Change 0 $ 0 $ 9
Horizon Kinetics Llc 2016-09-30 67,200 No Change 0 $ 0 $ 397
Family Management Corp 2016-09-30 10,000 No Change 0 $ 0 $ 59
Msi Financial Services Inc 2016-09-30 1,000 No Change 0 $ 0 $ 5
Integrated Wealth Management 2016-09-30 0 Sold All -166 $ -0 $ 0
Mufg Americas Holdings Corp 2016-09-30 436 Sold Some -224 $ -1 $ 2
Pnc Financial Services Group Inc 2016-09-30 0 Sold All -562 $ -3 $ 0
Legal General Group Plc 2016-09-30 11,684 Sold Some -1,106 $ -6 $ 69
Strs Ohio 2016-09-30 31,200 Sold Some -1,200 $ -7 $ 184
Duncker Streett Co Inc 2016-09-30 14,718 Sold Some -2,000 $ -11 $ 87
Alambic Investment Management L P 2016-09-30 10,900 Sold Some -2,000 $ -11 $ 64
Clear Harbor Asset Management Llc 2016-09-30 53,410 Sold Some -2,850 $ -16 $ 316
Cadence Capital Management Llc 2016-09-30 188,299 Sold Some -4,376 $ -25 $ 1,114
Foundry Partners Llc 2016-09-30 10,600 Sold Some -7,275 $ -43 $ 62
Rhumbline Advisers 2016-09-30 73,523 Sold Some -7,465 $ -44 $ 435
Kcg Holdings Inc 2016-09-30 35,845 Sold Some -7,867 $ -46 $ 212
Gamco Investors Inc Et Al 2016-09-30 17,000 Sold Some -8,000 $ -47 $ 100
Proshare Advisors Llc 2016-09-30 51,014 Sold Some -9,572 $ -56 $ 302
Northern Trust Corp 2016-09-30 799,251 Sold Some -9,583 $ -56 $ 4,731
Teacher Retirement System Of Texas 2016-09-30 0 Sold All -9,729 $ -57 $ 0
Bks Advisors Llc 2016-09-30 242,650 Sold Some -10,000 $ -59 $ 1,436
Fuller Thaler Asset Management Inc 2016-09-30 448,000 Sold Some -12,900 $ -76 $ 2,652
Gsa Capital Partners Llp 2016-09-30 0 Sold All -13,100 $ -77 $ 0
Symphony Asset Management Llc 2016-09-30 0 Sold All -14,890 $ -88 $ 0
Panagora Asset Management Inc 2016-09-30 11,387 Sold Some -21,528 $ -127 $ 67
Princeton Alpha Management Lp 2016-09-30 0 Sold All -23,774 $ -140 $ 0
Pinnacle Associates Ltd 2016-09-30 2,814,540 Sold Some -30,380 $ -179 $ 16,662
Axa 2016-09-30 0 Sold All -31,900 $ -188 $ 0
Shinko Asset Management Co Ltd 2016-09-30 107,663 Sold Some -32,528 $ -192 $ 637
Fisher Asset Management Llc 2016-09-30 107,663 Sold Some -32,698 $ -193 $ 637
Hollencrest Securities Llc 2016-09-30 0 Sold All -50,000 $ -296 $ 0
Tfs Capital Llc 2016-09-30 0 Sold All -60,575 $ -358 $ 0
Kennedy Capital Management Inc 2016-09-30 513,375 Sold Some -107,982 $ -639 $ 3,039
Sabby Management Llc 2016-09-30 0 Sold All -174,900 $ -1,035 $ 0
Royce Associates Lp 2016-09-30 1,728,350 Sold Some -185,000 $ -1,095 $ 10,231
Baker Bros Advisors Lp 2016-09-30 3,650,808 Sold Some -319,442 $ -1,891 $ 21,612
Dimensional Fund Advisors Lp 2016-09-30 258,331 Sold Some -344,397 $ -2,038 $ 1,529
Perceptive Advisors Llc 2016-09-30 0 Sold All -500,000 $ -2,960 $ 0
Tudor Investment Corp Et Al 2016-09-30 287,813 Sold Some -2,054,575 $ -12,163 $ 1,703